createdAt,value
2018-06-30T00:01:10.293Z,1.27
2018-06-30T00:03:43.898Z,1.73
2018-06-30T00:06:18.633Z,1.17
2018-06-30T00:08:46.885Z,1.40
2018-06-30T00:11:15.083Z,1.43
2018-06-30T00:13:43.318Z,1.10
2018-06-30T00:16:11.522Z,1.40
2018-06-30T00:18:39.894Z,1.30
2018-06-30T00:21:08.488Z,1.20
2018-06-30T00:23:36.741Z,1.10
2018-06-30T00:26:05.054Z,1.10
2018-06-30T00:28:33.267Z,1.33
2018-06-30T00:31:01.468Z,1.10
2018-06-30T00:33:29.706Z,1.00
2018-06-30T00:35:57.939Z,1.00
2018-06-30T00:38:26.145Z,1.10
2018-06-30T00:40:54.706Z,1.40
2018-06-30T00:43:22.910Z,1.47
2018-06-30T00:45:51.211Z,1.30
2018-06-30T00:48:19.465Z,1.30
2018-06-30T00:50:47.751Z,1.50
2018-06-30T00:53:15.963Z,1.50
2018-06-30T00:55:44.180Z,1.47
2018-06-30T00:58:12.435Z,1.30
2018-06-30T01:00:41.565Z,1.13
2018-06-30T01:03:10.464Z,1.40
2018-06-30T01:05:38.702Z,1.47
2018-06-30T01:08:06.978Z,1.50
2018-06-30T01:10:35.219Z,1.40
2018-06-30T01:13:03.456Z,1.00
2018-06-30T01:15:31.702Z,1.20
2018-06-30T01:17:59.935Z,1.20
2018-06-30T01:20:28.178Z,1.13
2018-06-30T01:22:56.470Z,0.87
2018-06-30T01:25:24.690Z,1.10
2018-06-30T01:27:52.945Z,0.87
2018-06-30T01:30:21.135Z,1.17
2018-06-30T01:32:49.362Z,1.40
2018-06-30T01:35:17.730Z,1.13
2018-06-30T01:37:45.983Z,1.20
2018-06-30T01:40:14.207Z,1.00
2018-06-30T01:42:42.446Z,1.10
2018-06-30T01:45:10.647Z,1.33
2018-06-30T01:47:38.910Z,1.10
2018-06-30T01:50:07.160Z,1.60
2018-06-30T01:52:35.360Z,1.60
2018-06-30T01:55:03.634Z,1.43
2018-06-30T01:57:31.850Z,1.50
2018-06-30T02:00:00.097Z,1.43
2018-06-30T02:02:28.291Z,1.50
2018-06-30T02:04:56.506Z,1.50
2018-06-30T02:07:24.722Z,1.53
2018-06-30T02:09:52.948Z,1.13
2018-06-30T02:12:21.154Z,1.37
2018-06-30T02:14:49.366Z,1.20
2018-06-30T02:17:17.567Z,1.40
2018-06-30T02:19:45.780Z,1.33
2018-06-30T02:22:13.984Z,1.20
2018-06-30T02:24:42.203Z,1.30
2018-06-30T02:27:10.565Z,1.33
2018-06-30T02:29:38.819Z,1.43
2018-06-30T02:32:07.052Z,1.20
2018-06-30T02:34:35.268Z,1.17
2018-06-30T02:37:03.483Z,1.00
2018-06-30T02:39:31.742Z,1.33
2018-06-30T02:41:59.983Z,1.33
2018-06-30T02:44:28.213Z,1.30
2018-06-30T02:46:56.407Z,1.40
2018-06-30T02:49:24.607Z,1.40
2018-06-30T02:51:52.900Z,1.47
2018-06-30T02:54:21.141Z,1.60
2018-06-30T02:56:49.362Z,1.30
2018-06-30T02:59:17.584Z,1.27
2018-06-30T03:01:45.825Z,1.07
2018-06-30T03:04:14.126Z,1.40
2018-06-30T03:06:42.329Z,1.10
2018-06-30T03:09:11.182Z,1.20
2018-06-30T03:11:39.883Z,1.60
2018-06-30T03:14:08.135Z,1.47
2018-06-30T03:16:36.358Z,1.30
2018-06-30T03:19:04.625Z,1.10
2018-06-30T03:21:32.900Z,1.17
2018-06-30T03:24:01.112Z,1.93
2018-06-30T03:26:29.337Z,1.47
2018-06-30T03:28:57.554Z,1.57
2018-06-30T03:31:25.821Z,1.37
2018-06-30T03:33:54.137Z,1.37
2018-06-30T03:36:22.462Z,1.70
2018-06-30T03:38:50.688Z,1.87
2018-06-30T03:41:18.894Z,1.60
2018-06-30T03:43:47.125Z,1.43
2018-06-30T03:46:15.427Z,1.27
2018-06-30T03:48:43.659Z,1.87
2018-06-30T03:51:11.875Z,1.70
2018-06-30T03:53:40.108Z,1.60
2018-06-30T03:56:08.335Z,1.80
2018-06-30T03:58:36.558Z,1.60
2018-06-30T04:01:04.837Z,1.53
2018-06-30T04:03:33.119Z,1.70
2018-06-30T04:06:01.320Z,1.90
2018-06-30T04:08:29.542Z,1.63
2018-06-30T04:10:57.758Z,1.70
2018-06-30T04:13:25.975Z,1.50
2018-06-30T04:15:54.178Z,1.53
2018-06-30T04:18:22.386Z,1.40
2018-06-30T04:20:50.592Z,1.20
2018-06-30T04:23:18.814Z,1.40
2018-06-30T04:25:47.031Z,1.83
2018-06-30T04:28:15.287Z,1.50
2018-06-30T04:30:43.509Z,1.60
2018-06-30T04:33:11.718Z,1.53
2018-06-30T04:35:39.934Z,1.43
2018-06-30T04:38:08.863Z,1.50
2018-06-30T04:40:37.105Z,1.70
2018-06-30T04:43:05.371Z,1.37
2018-06-30T04:45:33.598Z,1.50
2018-06-30T04:48:01.819Z,1.57
2018-06-30T04:50:30.041Z,1.67
2018-06-30T04:52:58.306Z,1.50
2018-06-30T04:55:26.544Z,1.33
2018-06-30T04:57:54.802Z,1.60
2018-06-30T05:00:23.001Z,1.40
2018-06-30T05:02:51.273Z,1.50
2018-06-30T05:05:19.568Z,1.40
2018-06-30T05:07:47.790Z,1.57
2018-06-30T05:10:15.989Z,1.50
2018-06-30T05:12:44.246Z,1.40
2018-06-30T05:15:12.463Z,1.77
2018-06-30T05:17:40.718Z,1.57
2018-06-30T05:20:08.981Z,1.70
2018-06-30T05:22:37.178Z,1.47
2018-06-30T05:25:05.413Z,1.43
2018-06-30T05:27:33.641Z,1.27
2018-06-30T05:30:01.859Z,1.10
2018-06-30T05:32:30.048Z,1.23
2018-06-30T05:34:58.263Z,1.40
2018-06-30T05:37:26.458Z,1.37
2018-06-30T05:42:19.911Z,1.30
2018-06-30T05:44:48.153Z,1.47
2018-06-30T05:47:16.423Z,1.33
2018-06-30T05:49:44.641Z,1.17
2018-06-30T05:52:12.880Z,1.57
2018-06-30T05:54:41.074Z,1.30
2018-06-30T05:57:09.360Z,0.97
2018-06-30T05:59:37.686Z,1.30
2018-06-30T06:02:06.066Z,1.20
2018-06-30T06:04:35.368Z,1.37
2018-06-30T06:07:03.590Z,1.30
2018-06-30T06:09:31.844Z,1.23
2018-06-30T06:12:00.046Z,1.20
2018-06-30T06:14:28.296Z,1.30
2018-06-30T06:16:56.539Z,1.10
2018-06-30T06:19:24.758Z,1.20
2018-06-30T06:21:52.984Z,1.30
2018-06-30T06:24:21.198Z,1.40
2018-06-30T06:26:50.371Z,1.30
2018-06-30T06:29:18.675Z,1.40
2018-06-30T06:31:46.955Z,1.50
2018-06-30T06:34:15.251Z,1.77
2018-06-30T06:36:43.463Z,1.27
2018-06-30T06:39:11.666Z,1.37
2018-06-30T06:41:40.289Z,1.10
2018-06-30T06:44:08.515Z,1.00
2018-06-30T06:46:36.695Z,1.50
2018-06-30T06:49:04.938Z,1.80
2018-06-30T06:51:33.151Z,1.40
2018-06-30T06:54:01.435Z,1.30
2018-06-30T06:56:29.631Z,1.17
2018-06-30T06:58:57.878Z,1.47
2018-06-30T07:01:26.050Z,1.40
2018-06-30T07:03:54.246Z,1.10
2018-06-30T07:06:22.446Z,1.67
2018-06-30T07:08:50.632Z,1.27
2018-06-30T07:11:18.862Z,1.30
2018-06-30T07:13:47.066Z,1.30
2018-06-30T07:16:15.253Z,1.20
2018-06-30T07:18:43.434Z,1.13
2018-06-30T07:21:11.765Z,1.10
2018-06-30T07:23:39.847Z,1.23
2018-06-30T07:26:08.266Z,1.07
2018-06-30T07:28:36.498Z,1.27
2018-06-30T07:31:04.680Z,1.40
2018-06-30T07:33:32.873Z,1.20
2018-06-30T07:36:01.113Z,1.70
2018-06-30T07:38:29.311Z,1.20
2018-06-30T07:40:57.723Z,1.40
2018-06-30T07:43:26.258Z,1.13
2018-06-30T07:45:54.447Z,1.03
2018-06-30T07:48:22.646Z,1.37
2018-06-30T07:50:50.825Z,1.17
2018-06-30T07:53:19.027Z,1.20
2018-06-30T07:55:47.235Z,1.10
2018-06-30T07:58:15.408Z,1.00
2018-06-30T08:00:43.642Z,1.20
2018-06-30T08:03:11.803Z,1.20
2018-06-30T08:05:39.970Z,1.30
2018-06-30T08:08:08.162Z,1.27
2018-06-30T08:10:36.351Z,1.13
2018-06-30T08:13:04.588Z,1.10
2018-06-30T08:15:32.763Z,1.00
2018-06-30T08:18:00.930Z,1.00
2018-06-30T08:20:29.102Z,1.20
2018-06-30T08:22:57.274Z,1.57
2018-06-30T08:25:25.511Z,0.90
2018-06-30T08:27:53.818Z,1.17
2018-06-30T08:30:22.017Z,1.13
2018-06-30T08:32:50.192Z,0.80
2018-06-30T08:35:18.385Z,1.00
2018-06-30T08:37:46.649Z,1.30
2018-06-30T08:40:21.215Z,1.00
2018-06-30T08:42:49.388Z,1.50
2018-06-30T08:45:17.600Z,1.20
2018-06-30T08:47:45.786Z,0.97
2018-06-30T08:50:13.971Z,1.23
2018-06-30T08:52:42.207Z,1.00
2018-06-30T08:55:10.399Z,1.00
2018-06-30T08:57:38.562Z,0.90
2018-06-30T09:00:06.798Z,0.93
2018-06-30T09:02:34.978Z,1.00
2018-06-30T09:05:03.211Z,0.90
2018-06-30T09:07:31.419Z,1.10
2018-06-30T09:09:59.675Z,1.10
2018-06-30T09:12:27.852Z,0.80
2018-06-30T09:14:56.033Z,1.10
2018-06-30T09:17:24.845Z,1.10
2018-06-30T09:19:53.071Z,0.87
2018-06-30T09:22:21.321Z,1.00
2018-06-30T09:24:49.588Z,1.20
2018-06-30T09:27:17.832Z,1.10
2018-06-30T09:29:46.082Z,1.20
2018-06-30T09:32:14.333Z,0.80
2018-06-30T09:34:42.604Z,1.20
2018-06-30T09:37:10.917Z,1.50
2018-06-30T09:39:39.193Z,1.10
2018-06-30T09:42:07.605Z,1.23
2018-06-30T09:44:35.950Z,1.07
2018-06-30T09:47:04.203Z,1.17
2018-06-30T09:49:32.445Z,1.03
2018-06-30T09:52:00.729Z,1.10
2018-06-30T09:54:28.967Z,1.40
2018-06-30T09:56:57.266Z,1.17
2018-06-30T09:59:25.506Z,0.90
2018-06-30T10:01:53.730Z,0.80
2018-06-30T10:04:21.952Z,0.90
2018-06-30T10:06:50.171Z,0.83
2018-06-30T10:09:18.416Z,1.20
2018-06-30T10:11:46.707Z,1.17
2018-06-30T10:14:14.926Z,1.00
2018-06-30T10:16:43.182Z,1.17
2018-06-30T10:19:12.107Z,1.20
2018-06-30T10:21:40.292Z,0.90
2018-06-30T10:24:08.611Z,0.80
2018-06-30T10:26:36.835Z,0.90
2018-06-30T10:29:05.063Z,1.10
2018-06-30T10:31:33.338Z,1.00
2018-06-30T10:34:01.579Z,1.13
2018-06-30T10:36:29.815Z,1.30
2018-06-30T10:38:58.055Z,0.93
2018-06-30T10:41:26.338Z,0.77
2018-06-30T10:43:54.602Z,0.83
2018-06-30T10:46:22.898Z,1.03
2018-06-30T10:48:51.131Z,1.33
2018-06-30T10:51:19.437Z,1.00
2018-06-30T10:53:47.661Z,1.47
2018-06-30T10:56:15.897Z,0.80
2018-06-30T10:58:44.117Z,1.20
2018-06-30T11:01:12.358Z,1.07
2018-06-30T11:03:40.571Z,1.10
2018-06-30T11:06:08.795Z,0.97
2018-06-30T11:08:37.017Z,1.30
2018-06-30T11:11:05.320Z,1.33
2018-06-30T11:13:33.480Z,0.90
2018-06-30T11:16:01.681Z,1.07
2018-06-30T11:18:29.915Z,0.90
2018-06-30T11:20:58.152Z,1.37
2018-06-30T11:23:26.542Z,1.10
2018-06-30T11:25:54.758Z,1.20
2018-06-30T11:28:22.951Z,1.40
2018-06-30T11:30:51.170Z,1.20
2018-06-30T11:33:19.390Z,1.37
2018-06-30T11:35:47.568Z,0.97
2018-06-30T11:38:15.791Z,0.80
2018-06-30T11:40:44.049Z,1.13
2018-06-30T11:43:12.271Z,1.00
2018-06-30T11:45:40.499Z,0.80
2018-06-30T11:48:08.711Z,0.83
2018-06-30T11:50:36.938Z,1.20
2018-06-30T11:53:05.141Z,1.37
2018-06-30T11:55:33.341Z,1.17
2018-06-30T11:58:01.596Z,1.83
2018-06-30T12:00:29.817Z,3.70
2018-06-30T12:02:58.035Z,3.40
2018-06-30T12:05:26.234Z,3.73
2018-06-30T12:07:54.493Z,1.20
2018-06-30T12:10:22.691Z,1.23
2018-06-30T12:12:50.932Z,1.57
2018-06-30T12:15:19.203Z,1.50
2018-06-30T12:17:47.411Z,1.10
2018-06-30T12:20:15.624Z,1.60
2018-06-30T12:22:43.906Z,1.30
2018-06-30T12:25:12.078Z,4.10
2018-06-30T12:27:40.305Z,0.80
2018-06-30T12:30:08.825Z,1.87
2018-06-30T12:32:37.058Z,4.80
2018-06-30T12:35:05.298Z,1.50
2018-06-30T12:37:33.469Z,0.90
2018-06-30T12:40:01.655Z,1.20
2018-06-30T12:42:29.843Z,1.37
2018-06-30T12:44:58.059Z,1.10
2018-06-30T12:47:26.251Z,1.30
2018-06-30T12:49:54.547Z,1.10
2018-06-30T12:52:22.710Z,1.00
2018-06-30T12:54:50.951Z,4.73
2018-06-30T12:57:19.110Z,0.90
2018-06-30T12:59:47.343Z,1.20
2018-06-30T13:02:15.522Z,1.37
2018-06-30T13:04:43.734Z,1.20
2018-06-30T13:07:11.910Z,0.80
2018-06-30T13:09:40.091Z,1.20
2018-06-30T13:12:08.306Z,1.00
2018-06-30T13:14:36.499Z,1.33
2018-06-30T13:17:04.737Z,1.27
2018-06-30T13:19:32.926Z,1.50
2018-06-30T13:22:01.162Z,6.17
2018-06-30T13:24:29.342Z,5.90
2018-06-30T13:26:57.527Z,2.00
2018-06-30T13:29:25.742Z,1.20
2018-06-30T13:31:53.932Z,1.10
2018-06-30T13:34:22.116Z,1.63
2018-06-30T13:36:51.361Z,1.93
2018-06-30T13:39:19.554Z,1.30
2018-06-30T13:41:47.762Z,1.53
2018-06-30T13:44:15.982Z,1.47
2018-06-30T13:46:44.191Z,1.30
2018-06-30T13:49:12.386Z,1.10
2018-06-30T13:51:40.567Z,1.20
2018-06-30T13:54:08.962Z,1.27
2018-06-30T13:56:37.254Z,1.27
2018-06-30T13:59:05.475Z,1.00
2018-06-30T14:01:33.823Z,1.33
2018-06-30T14:04:02.040Z,1.00
2018-06-30T14:06:30.309Z,0.90
2018-06-30T14:08:58.514Z,1.10
2018-06-30T14:11:26.891Z,1.33
2018-06-30T14:13:55.068Z,1.00
2018-06-30T14:16:23.237Z,1.07
2018-06-30T14:18:51.481Z,1.00
2018-06-30T14:21:19.650Z,1.10
2018-06-30T14:23:47.870Z,1.13
2018-06-30T14:26:16.042Z,0.93
2018-06-30T14:28:44.234Z,1.20
2018-06-30T14:31:12.491Z,1.27
2018-06-30T14:36:15.358Z,1.40
2018-06-30T14:38:43.544Z,0.93
2018-06-30T14:41:11.747Z,1.40
2018-06-30T14:43:39.980Z,1.40
2018-06-30T14:46:08.173Z,1.20
2018-06-30T14:48:36.459Z,1.30
2018-06-30T14:51:04.752Z,1.30
2018-06-30T14:53:32.954Z,1.47
2018-06-30T14:56:01.153Z,1.13
2018-06-30T14:58:29.350Z,1.63
2018-06-30T15:00:57.575Z,1.20
2018-06-30T15:03:25.771Z,1.13
2018-06-30T15:05:53.976Z,1.40
2018-06-30T15:08:22.166Z,1.20
2018-06-30T15:10:50.368Z,1.50
2018-06-30T15:13:18.563Z,2.67
2018-06-30T15:15:46.774Z,3.47
2018-06-30T15:18:15.058Z,1.50
2018-06-30T15:20:43.243Z,2.40
2018-06-30T15:23:11.431Z,2.90
2018-06-30T15:25:39.616Z,1.93
2018-06-30T15:28:07.827Z,1.73
2018-06-30T15:30:36.150Z,4.00
2018-06-30T15:33:04.587Z,1.90
2018-06-30T15:35:32.813Z,2.03
2018-06-30T15:38:01.037Z,1.00
2018-06-30T15:40:29.267Z,1.07
2018-06-30T15:42:58.034Z,1.10
2018-06-30T15:45:26.284Z,1.37
2018-06-30T15:47:54.532Z,1.17
2018-06-30T15:50:22.785Z,1.47
2018-06-30T15:52:51.015Z,1.30
2018-06-30T15:55:19.415Z,1.30
2018-06-30T15:57:47.618Z,1.50
2018-06-30T16:00:15.887Z,2.60
2018-06-30T16:02:44.148Z,1.23
2018-06-30T16:05:12.447Z,1.23
2018-06-30T16:07:40.696Z,2.40
2018-06-30T16:10:08.997Z,2.70
2018-06-30T16:12:37.226Z,1.83
2018-06-30T16:15:05.661Z,1.67
2018-06-30T16:17:33.935Z,1.30
2018-06-30T16:20:02.128Z,1.60
2018-06-30T16:22:30.387Z,1.70
2018-06-30T16:24:58.582Z,2.50
2018-06-30T16:27:26.787Z,1.40
2018-06-30T16:29:55.037Z,1.60
2018-06-30T16:32:23.700Z,1.73
2018-06-30T16:34:51.892Z,1.73
2018-06-30T16:37:20.084Z,1.57
2018-06-30T16:39:48.238Z,1.50
2018-06-30T16:42:16.434Z,1.10
2018-06-30T16:44:44.638Z,1.10
2018-06-30T16:47:12.912Z,1.20
2018-06-30T16:49:41.138Z,1.47
2018-06-30T16:52:09.359Z,1.30
2018-06-30T16:54:37.566Z,1.57
2018-06-30T16:57:05.805Z,1.20
2018-06-30T16:59:34.070Z,1.43
2018-06-30T17:02:02.274Z,1.33
2018-06-30T17:04:30.466Z,1.47
2018-06-30T17:06:58.817Z,1.00
2018-06-30T17:09:27.356Z,1.10
2018-06-30T17:11:55.555Z,1.33
2018-06-30T17:14:23.825Z,1.23
2018-06-30T17:16:52.202Z,1.07
2018-06-30T17:19:20.403Z,1.40
2018-06-30T17:21:48.722Z,1.30
2018-06-30T17:24:16.923Z,1.30
2018-06-30T17:26:45.190Z,1.63
2018-06-30T17:29:13.430Z,1.00
2018-06-30T17:31:41.628Z,1.53
2018-06-30T17:34:09.827Z,1.50
2018-06-30T17:36:38.050Z,1.40
2018-06-30T17:39:07.227Z,2.33
2018-06-30T17:41:35.424Z,1.40
2018-06-30T17:44:03.613Z,1.53
2018-06-30T17:46:31.843Z,1.40
2018-06-30T17:49:00.055Z,1.40
2018-06-30T17:51:28.356Z,1.57
2018-06-30T17:53:56.562Z,2.07
2018-06-30T17:56:24.758Z,1.40
2018-06-30T17:58:52.974Z,1.93
2018-06-30T18:01:21.190Z,1.90
2018-06-30T18:03:49.513Z,1.40
2018-06-30T18:06:17.587Z,1.70
2018-06-30T18:08:45.766Z,1.50
2018-06-30T18:11:13.974Z,1.87
2018-06-30T18:13:42.151Z,1.67
2018-06-30T18:16:10.323Z,1.90
2018-06-30T18:18:38.574Z,1.90
2018-06-30T18:21:06.770Z,2.07
2018-06-30T18:23:34.935Z,2.07
2018-06-30T18:26:03.150Z,1.80
2018-06-30T18:28:31.323Z,2.30
2018-06-30T18:30:59.598Z,2.20
2018-06-30T18:33:27.891Z,1.90
2018-06-30T18:35:56.134Z,2.10
2018-06-30T18:38:24.347Z,1.80
2018-06-30T18:40:52.587Z,2.33
2018-06-30T18:43:20.924Z,2.30
2018-06-30T18:45:49.100Z,2.30
2018-06-30T18:48:17.325Z,2.10
2018-06-30T18:50:45.511Z,2.00
2018-06-30T18:53:13.704Z,2.10
2018-06-30T18:55:41.923Z,1.93
2018-06-30T18:58:10.111Z,1.87
2018-06-30T19:00:38.352Z,2.10
2018-06-30T19:03:06.728Z,2.23
2018-06-30T19:05:34.900Z,1.77
2018-06-30T19:08:03.066Z,2.00
2018-06-30T19:10:31.247Z,2.27
2018-06-30T19:12:59.842Z,2.20
2018-06-30T19:15:28.113Z,2.20
2018-06-30T19:17:56.388Z,2.33
2018-06-30T19:20:24.657Z,2.10
2018-06-30T19:22:53.034Z,1.63
2018-06-30T19:25:21.315Z,1.93
2018-06-30T19:27:49.623Z,1.40
2018-06-30T19:30:17.892Z,2.00
2018-06-30T19:32:46.123Z,2.00
2018-06-30T19:35:14.463Z,1.70
2018-06-30T19:37:42.828Z,1.63
2018-06-30T19:40:11.091Z,1.70
2018-06-30T19:42:39.387Z,1.80
2018-06-30T19:45:07.676Z,1.73
2018-06-30T19:47:35.924Z,1.90
2018-06-30T19:50:04.289Z,1.90
2018-06-30T19:52:32.523Z,1.80
2018-06-30T19:55:00.768Z,2.00
2018-06-30T19:57:29.001Z,2.37
2018-06-30T19:59:57.202Z,2.53
2018-06-30T20:02:25.503Z,2.83
2018-06-30T20:04:53.745Z,3.70
2018-06-30T20:07:21.969Z,3.40
2018-06-30T20:09:50.204Z,3.50
2018-06-30T20:12:18.430Z,3.53
2018-06-30T20:14:46.698Z,2.90
2018-06-30T20:17:14.942Z,3.43
2018-06-30T20:19:43.204Z,2.80
2018-06-30T20:22:11.479Z,3.27
2018-06-30T20:24:39.688Z,3.27
2018-06-30T20:27:07.996Z,2.70
2018-06-30T20:29:36.259Z,2.90
2018-06-30T20:32:04.485Z,3.00
2018-06-30T20:34:32.714Z,2.90
2018-06-30T20:37:00.952Z,2.30
2018-06-30T20:39:29.160Z,2.70
2018-06-30T20:41:57.421Z,2.47
2018-06-30T20:44:25.865Z,2.40
2018-06-30T20:46:54.075Z,2.80
2018-06-30T20:49:22.308Z,3.00
2018-06-30T20:51:50.527Z,3.80
2018-06-30T20:54:18.810Z,3.53
2018-06-30T20:56:47.073Z,3.03
2018-06-30T20:59:15.329Z,3.80
2018-06-30T21:01:43.648Z,3.43
2018-06-30T21:04:11.851Z,3.20
2018-06-30T21:06:40.075Z,3.23
2018-06-30T21:09:09.509Z,3.40
2018-06-30T21:11:37.735Z,4.07
2018-06-30T21:14:05.982Z,3.07
2018-06-30T21:16:34.283Z,3.07
2018-06-30T21:19:02.507Z,3.07
2018-06-30T21:21:30.709Z,3.43
2018-06-30T21:23:58.932Z,3.23
2018-06-30T21:26:27.146Z,3.20
2018-06-30T21:28:55.436Z,2.90
2018-06-30T21:31:23.688Z,3.37
2018-06-30T21:33:51.887Z,2.93
2018-06-30T21:36:20.084Z,2.80
2018-06-30T21:38:48.312Z,2.70
2018-06-30T21:41:16.855Z,2.73
2018-06-30T21:43:45.162Z,3.00
2018-06-30T21:46:20.075Z,3.07
2018-06-30T21:48:48.301Z,2.93
2018-06-30T21:51:16.528Z,2.83
2018-06-30T21:53:44.761Z,3.30
2018-06-30T21:56:12.989Z,3.83
2018-06-30T21:58:41.208Z,3.60
2018-06-30T22:01:29.055Z,3.03
2018-06-30T22:03:57.735Z,3.03
2018-06-30T22:06:25.995Z,3.50
2018-06-30T22:08:54.278Z,3.03
2018-06-30T22:11:22.601Z,2.93
2018-06-30T22:13:50.856Z,2.80
2018-06-30T22:16:19.085Z,3.10
2018-06-30T22:18:47.308Z,3.00
2018-06-30T22:21:15.520Z,3.43
2018-06-30T22:23:43.714Z,2.93
2018-06-30T22:26:11.977Z,3.00
2018-06-30T22:28:40.251Z,2.80
2018-06-30T22:31:08.497Z,3.30
2018-06-30T22:33:36.707Z,3.00
2018-06-30T22:36:05.087Z,3.80
2018-06-30T22:38:33.315Z,3.37
2018-06-30T22:41:01.559Z,3.70
2018-06-30T22:43:29.795Z,3.30
2018-06-30T22:45:58.095Z,3.70
2018-06-30T22:48:26.322Z,3.60
2018-06-30T22:50:54.566Z,3.20
2018-06-30T22:53:22.807Z,3.53
2018-06-30T22:55:51.044Z,3.67
2018-06-30T22:58:19.291Z,4.03
2018-06-30T23:00:47.523Z,4.07
2018-06-30T23:03:15.755Z,4.17
2018-06-30T23:05:43.974Z,3.97
2018-06-30T23:08:12.216Z,3.63
2018-06-30T23:10:40.443Z,3.60
2018-06-30T23:13:08.661Z,3.43
2018-06-30T23:15:36.882Z,3.50
2018-06-30T23:18:05.123Z,3.70
2018-06-30T23:20:33.384Z,3.50
2018-06-30T23:23:03.595Z,3.40
2018-06-30T23:25:32.710Z,2.97
2018-06-30T23:28:01.267Z,2.60
2018-06-30T23:30:30.082Z,2.90
2018-06-30T23:32:58.403Z,2.73
2018-06-30T23:35:27.875Z,2.40
2018-06-30T23:37:57.066Z,2.30
2018-06-30T23:40:25.321Z,2.40
2018-06-30T23:42:53.646Z,2.73
2018-06-30T23:45:22.326Z,2.00
2018-06-30T23:47:51.348Z,2.23
2018-06-30T23:50:19.742Z,2.10
2018-06-30T23:52:48.013Z,2.40
2018-06-30T23:55:16.233Z,2.53
2018-06-30T23:57:44.515Z,1.97
